createdAt,value
2023-08-30T00:00:08.606Z,1.50
2023-08-30T00:01:08.683Z,1.30
2023-08-30T00:02:08.578Z,1.30
2023-08-30T00:03:08.673Z,1.20
2023-08-30T00:04:08.586Z,1.40
2023-08-30T00:05:08.552Z,1.30
2023-08-30T00:06:08.593Z,1.30
2023-08-30T00:07:08.531Z,1.30
2023-08-30T00:08:08.748Z,1.20
2023-08-30T00:09:08.529Z,1.20
2023-08-30T00:10:08.522Z,1.40
2023-08-30T00:11:08.549Z,1.40
2023-08-30T00:12:08.490Z,1.40
2023-08-30T00:13:08.478Z,1.30
2023-08-30T00:14:08.459Z,1.50
2023-08-30T00:15:08.483Z,1.50
2023-08-30T00:16:08.438Z,1.50
2023-08-30T00:17:08.458Z,1.30
2023-08-30T00:18:08.775Z,1.30
2023-08-30T00:19:08.426Z,1.00
2023-08-30T00:20:08.404Z,1.10
2023-08-30T00:21:08.391Z,1.40
2023-08-30T00:22:08.382Z,1.00
2023-08-30T00:23:08.364Z,1.30
2023-08-30T00:24:08.368Z,1.10
2023-08-30T00:25:08.360Z,1.30
2023-08-30T00:26:08.337Z,1.00
2023-08-30T00:27:08.326Z,1.20
2023-08-30T00:28:08.595Z,1.10
2023-08-30T00:29:08.325Z,1.50
2023-08-30T00:30:08.302Z,1.30
2023-08-30T00:31:08.386Z,1.30
2023-08-30T00:32:08.276Z,1.40
2023-08-30T00:33:08.275Z,1.60
2023-08-30T00:34:08.288Z,1.20
2023-08-30T00:35:08.248Z,1.50
2023-08-30T00:36:08.237Z,1.00
2023-08-30T00:37:08.213Z,1.40
2023-08-30T00:38:08.625Z,1.60
2023-08-30T00:39:08.232Z,1.00
2023-08-30T00:40:08.199Z,1.40
2023-08-30T00:41:08.179Z,1.10
2023-08-30T00:42:08.175Z,1.20
2023-08-30T00:43:08.177Z,1.40
2023-08-30T00:44:08.145Z,1.50
2023-08-30T00:45:08.271Z,1.20
2023-08-30T00:46:08.190Z,1.30
2023-08-30T00:47:08.112Z,0.90
2023-08-30T00:48:08.626Z,1.40
2023-08-30T00:49:08.096Z,1.20
2023-08-30T00:50:08.083Z,1.10
2023-08-30T00:51:08.074Z,1.10
2023-08-30T00:52:08.060Z,0.90
2023-08-30T00:53:08.068Z,1.10
2023-08-30T00:54:08.029Z,1.20
2023-08-30T00:55:08.028Z,1.20
2023-08-30T00:56:08.019Z,1.10
2023-08-30T00:57:08.045Z,1.00
2023-08-30T00:58:08.180Z,1.30
2023-08-30T00:59:07.981Z,1.10
2023-08-30T01:00:07.984Z,1.30
2023-08-30T01:01:08.150Z,1.30
2023-08-30T01:02:07.984Z,1.30
2023-08-30T01:03:07.956Z,1.20
2023-08-30T01:04:07.937Z,1.40
2023-08-30T01:05:07.920Z,1.00
2023-08-30T01:06:07.936Z,1.60
2023-08-30T01:07:07.895Z,1.10
2023-08-30T01:08:08.116Z,1.30
2023-08-30T01:09:07.895Z,1.20
2023-08-30T01:10:07.869Z,1.20
2023-08-30T01:11:07.879Z,1.20
2023-08-30T01:12:07.841Z,1.60
2023-08-30T01:13:07.835Z,1.40
2023-08-30T01:14:07.818Z,1.50
2023-08-30T01:15:07.855Z,1.30
2023-08-30T01:16:07.844Z,1.20
2023-08-30T01:17:07.784Z,1.20
2023-08-30T01:18:08.264Z,1.90
2023-08-30T01:19:07.781Z,1.60
2023-08-30T01:20:07.788Z,1.30
2023-08-30T01:21:07.745Z,1.40
2023-08-30T01:22:07.743Z,1.70
2023-08-30T01:23:07.728Z,1.10
2023-08-30T01:24:07.715Z,1.60
2023-08-30T01:25:07.727Z,1.50
2023-08-30T01:26:07.694Z,1.40
2023-08-30T01:27:07.688Z,1.20
2023-08-30T01:28:08.047Z,1.70
2023-08-30T01:29:07.693Z,1.80
2023-08-30T01:30:07.707Z,1.50
2023-08-30T01:31:07.729Z,1.60
2023-08-30T01:32:07.627Z,1.40
2023-08-30T01:33:07.658Z,1.20
2023-08-30T01:34:07.693Z,1.20
2023-08-30T01:35:07.598Z,1.30
2023-08-30T01:36:07.598Z,1.10
2023-08-30T01:37:07.572Z,1.00
2023-08-30T01:38:07.820Z,1.40
2023-08-30T01:39:07.572Z,1.10
2023-08-30T01:40:07.546Z,1.20
2023-08-30T01:41:07.539Z,1.50
2023-08-30T01:42:07.516Z,1.50
2023-08-30T01:43:07.855Z,1.40
2023-08-30T01:44:07.526Z,1.20
2023-08-30T01:45:07.519Z,1.40
2023-08-30T01:46:07.479Z,1.40
2023-08-30T01:47:07.480Z,1.40
2023-08-30T01:48:07.746Z,1.00
2023-08-30T01:49:07.445Z,1.30
2023-08-30T01:50:07.435Z,1.10
2023-08-30T01:51:07.431Z,1.20
2023-08-30T01:52:07.403Z,1.40
2023-08-30T01:53:07.422Z,1.50
2023-08-30T01:54:07.391Z,1.30
2023-08-30T01:55:07.389Z,1.40
2023-08-30T01:56:07.381Z,1.30
2023-08-30T01:57:07.394Z,1.40
2023-08-30T01:58:07.647Z,1.10
2023-08-30T01:59:07.348Z,1.00
2023-08-30T02:00:07.333Z,1.20
2023-08-30T02:01:07.332Z,1.20
2023-08-30T02:02:07.656Z,1.30
2023-08-30T02:03:07.329Z,1.20
2023-08-30T02:04:07.283Z,1.20
2023-08-30T02:05:07.317Z,1.40
2023-08-30T02:06:07.760Z,1.10
2023-08-30T02:07:07.351Z,1.10
2023-08-30T02:08:07.464Z,1.00
2023-08-30T02:09:07.255Z,1.00
2023-08-30T02:10:07.233Z,1.40
2023-08-30T02:11:07.234Z,1.30
2023-08-30T02:12:07.315Z,1.50
2023-08-30T02:13:07.200Z,1.00
2023-08-30T02:14:07.193Z,1.40
2023-08-30T02:15:07.182Z,0.90
2023-08-30T02:16:07.206Z,1.40
2023-08-30T02:17:07.156Z,1.00
2023-08-30T02:18:07.355Z,1.40
2023-08-30T02:19:07.157Z,1.00
2023-08-30T02:20:07.137Z,1.10
2023-08-30T02:21:07.123Z,1.40
2023-08-30T02:22:07.119Z,1.10
2023-08-30T02:23:14.631Z,1.30
2023-08-30T02:24:07.073Z,1.10
2023-08-30T02:25:07.087Z,1.40
2023-08-30T02:26:07.093Z,0.90
2023-08-30T02:27:07.087Z,1.20
2023-08-30T02:28:07.248Z,1.00
2023-08-30T02:29:07.021Z,1.30
2023-08-30T02:30:07.023Z,1.20
2023-08-30T02:31:07.037Z,1.20
2023-08-30T02:32:06.993Z,1.40
2023-08-30T02:33:07.024Z,1.20
2023-08-30T02:34:06.993Z,1.10
2023-08-30T02:35:06.992Z,1.50
2023-08-30T02:36:06.944Z,1.50
2023-08-30T02:37:06.939Z,1.40
2023-08-30T02:38:07.184Z,1.70
2023-08-30T02:39:06.943Z,1.30
2023-08-30T02:40:06.899Z,1.30
2023-08-30T02:41:06.905Z,1.30
2023-08-30T02:42:06.891Z,1.30
2023-08-30T02:43:06.886Z,1.00
2023-08-30T02:44:06.887Z,1.00
2023-08-30T02:45:06.854Z,0.90
2023-08-30T02:46:06.846Z,1.40
2023-08-30T02:47:06.835Z,1.20
2023-08-30T02:48:07.010Z,1.20
2023-08-30T02:49:06.861Z,1.10
2023-08-30T02:50:06.869Z,1.20
2023-08-30T02:51:06.793Z,0.90
2023-08-30T02:52:06.783Z,1.10
2023-08-30T02:53:06.792Z,1.30
2023-08-30T02:54:06.763Z,1.20
2023-08-30T02:55:06.753Z,1.40
2023-08-30T02:56:06.734Z,1.50
2023-08-30T02:57:06.741Z,1.60
2023-08-30T02:58:06.800Z,1.00
2023-08-30T02:59:06.711Z,1.40
2023-08-30T03:00:06.685Z,1.10
2023-08-30T03:01:06.789Z,1.10
2023-08-30T03:02:06.704Z,1.10
2023-08-30T03:03:06.748Z,1.10
2023-08-30T03:04:06.656Z,1.20
2023-08-30T03:05:06.654Z,1.10
2023-08-30T03:06:06.620Z,1.00
2023-08-30T03:07:06.640Z,1.00
2023-08-30T03:08:06.725Z,1.10
2023-08-30T03:09:06.598Z,1.00
2023-08-30T03:10:06.588Z,1.20
2023-08-30T03:11:06.594Z,1.10
2023-08-30T03:12:06.582Z,1.20
2023-08-30T03:13:06.569Z,1.00
2023-08-30T03:14:06.534Z,1.10
2023-08-30T03:15:06.544Z,1.20
2023-08-30T03:16:06.556Z,1.40
2023-08-30T03:17:06.507Z,1.10
2023-08-30T03:18:06.566Z,1.20
2023-08-30T03:19:06.493Z,1.00
2023-08-30T03:20:06.477Z,1.40
2023-08-30T03:21:06.488Z,1.00
2023-08-30T03:22:06.448Z,1.10
2023-08-30T03:23:06.458Z,0.90
2023-08-30T03:24:06.429Z,1.10
2023-08-30T03:25:06.443Z,0.80
2023-08-30T03:26:06.449Z,1.00
2023-08-30T03:27:06.405Z,0.90
2023-08-30T03:28:06.586Z,1.20
2023-08-30T03:29:06.386Z,1.00
2023-08-30T03:30:06.392Z,1.10
2023-08-30T03:31:06.466Z,1.10
2023-08-30T03:32:06.343Z,1.30
2023-08-30T03:33:06.362Z,1.30
2023-08-30T03:34:06.356Z,1.30
2023-08-30T03:35:06.340Z,1.10
2023-08-30T03:36:06.305Z,1.30
2023-08-30T03:37:06.327Z,1.00
2023-08-30T03:38:06.353Z,1.10
2023-08-30T03:39:06.306Z,1.20
2023-08-30T03:40:06.287Z,1.50
2023-08-30T03:41:06.277Z,1.20
2023-08-30T03:42:06.254Z,1.40
2023-08-30T03:43:06.253Z,1.40
2023-08-30T03:44:06.231Z,1.50
2023-08-30T03:45:06.224Z,1.40
2023-08-30T03:46:06.228Z,1.70
2023-08-30T03:47:06.198Z,1.50
2023-08-30T03:48:06.304Z,1.20
2023-08-30T03:49:06.198Z,1.50
2023-08-30T03:50:06.171Z,1.20
2023-08-30T03:51:06.158Z,1.30
2023-08-30T03:52:06.139Z,1.10
2023-08-30T03:53:06.143Z,1.70
2023-08-30T03:54:06.120Z,1.30
2023-08-30T03:55:06.110Z,1.20
2023-08-30T03:56:06.126Z,1.20
2023-08-30T03:57:06.099Z,1.30
2023-08-30T03:58:06.078Z,1.60
2023-08-30T03:59:06.083Z,1.30
2023-08-30T04:00:06.070Z,1.60
2023-08-30T04:01:06.116Z,1.50
2023-08-30T04:02:06.072Z,1.50
2023-08-30T04:03:06.025Z,1.30
2023-08-30T04:04:06.040Z,1.40
2023-08-30T04:05:06.004Z,1.30
2023-08-30T04:06:06.020Z,1.40
2023-08-30T04:07:05.970Z,1.40
2023-08-30T04:08:05.918Z,1.20
2023-08-30T04:09:05.909Z,1.70
2023-08-30T04:10:05.950Z,1.40
2023-08-30T04:11:06.009Z,1.60
2023-08-30T04:12:05.953Z,1.50
2023-08-30T04:13:05.903Z,1.90
2023-08-30T04:14:05.914Z,1.50
2023-08-30T04:15:05.890Z,1.70
2023-08-30T04:16:05.892Z,1.70
2023-08-30T04:17:05.898Z,1.60
2023-08-30T04:18:05.868Z,1.70
2023-08-30T04:19:05.789Z,1.60
2023-08-30T04:20:05.953Z,1.80
2023-08-30T04:21:05.785Z,1.80
2023-08-30T04:22:05.762Z,2.20
2023-08-30T04:23:05.802Z,1.50
2023-08-30T04:24:05.744Z,2.00
2023-08-30T04:25:05.746Z,1.90
2023-08-30T04:26:05.746Z,2.10
2023-08-30T04:27:05.714Z,2.20
2023-08-30T04:28:05.699Z,2.00
2023-08-30T04:29:06.085Z,2.20
2023-08-30T04:30:05.723Z,1.90
2023-08-30T04:31:05.695Z,2.50
2023-08-30T04:32:05.670Z,2.40
2023-08-30T04:33:05.669Z,2.50
2023-08-30T04:34:05.637Z,2.40
2023-08-30T04:35:05.654Z,2.00
2023-08-30T04:36:05.644Z,2.10
2023-08-30T04:37:05.595Z,2.10
2023-08-30T04:38:05.608Z,1.90
2023-08-30T04:39:05.588Z,1.60
2023-08-30T04:40:05.589Z,1.80
2023-08-30T04:41:05.552Z,1.50
2023-08-30T04:42:05.595Z,1.80
2023-08-30T04:43:05.535Z,2.00
2023-08-30T04:44:05.550Z,2.20
2023-08-30T04:45:05.521Z,1.90
2023-08-30T04:46:05.516Z,1.90
2023-08-30T04:47:05.491Z,1.80
2023-08-30T04:48:05.718Z,1.70
2023-08-30T04:49:05.493Z,2.00
2023-08-30T04:50:05.479Z,2.10
2023-08-30T04:51:05.450Z,2.10
2023-08-30T04:52:05.450Z,1.90
2023-08-30T04:53:05.455Z,2.00
2023-08-30T04:54:05.463Z,2.00
2023-08-30T04:55:05.406Z,2.10
2023-08-30T04:56:05.405Z,2.40
2023-08-30T04:57:05.404Z,2.20
2023-08-30T04:58:05.394Z,2.20
2023-08-30T04:59:05.375Z,2.20
2023-08-30T05:00:05.376Z,2.40
2023-08-30T05:01:05.382Z,2.10
2023-08-30T05:02:05.333Z,2.00
2023-08-30T05:03:05.403Z,2.00
2023-08-30T05:04:05.353Z,1.90
2023-08-30T05:05:05.302Z,2.10
2023-08-30T05:06:05.341Z,2.20
2023-08-30T05:07:05.315Z,2.00
2023-08-30T05:08:05.285Z,1.70
2023-08-30T05:09:05.247Z,2.40
2023-08-30T05:10:05.258Z,2.10
2023-08-30T05:11:06.720Z,2.00
2023-08-30T05:12:05.245Z,1.70
2023-08-30T05:13:05.232Z,2.30
2023-08-30T05:14:05.208Z,2.40
2023-08-30T05:15:05.243Z,2.20
2023-08-30T05:16:05.274Z,2.30
2023-08-30T05:17:05.208Z,2.10
2023-08-30T05:18:05.281Z,2.10
2023-08-30T05:19:05.142Z,2.30
2023-08-30T05:20:05.141Z,2.10
2023-08-30T05:21:05.156Z,2.30
2023-08-30T05:22:05.169Z,2.50
2023-08-30T05:23:05.148Z,2.70
2023-08-30T05:24:05.107Z,2.60
2023-08-30T05:25:05.089Z,2.50
2023-08-30T05:26:05.118Z,2.40
2023-08-30T05:27:05.060Z,2.20
2023-08-30T05:28:05.057Z,1.90
2023-08-30T05:29:05.037Z,2.30
2023-08-30T05:30:05.053Z,2.60
2023-08-30T05:31:06.629Z,2.70
2023-08-30T05:32:05.020Z,2.40
2023-08-30T05:33:05.010Z,2.60
2023-08-30T05:34:04.997Z,2.50
2023-08-30T05:35:04.991Z,2.60
2023-08-30T05:36:05.091Z,2.60
2023-08-30T05:37:04.957Z,2.70
2023-08-30T05:38:04.960Z,2.80
2023-08-30T05:39:04.941Z,2.00
2023-08-30T05:40:04.982Z,2.60
2023-08-30T05:41:04.912Z,2.30
2023-08-30T05:42:04.905Z,2.50
2023-08-30T05:43:04.888Z,2.50
2023-08-30T05:44:04.988Z,2.50
2023-08-30T05:45:04.886Z,2.50
2023-08-30T05:46:04.910Z,2.80
2023-08-30T05:47:04.854Z,2.20
2023-08-30T05:48:04.835Z,2.90
2023-08-30T05:49:04.852Z,2.30
2023-08-30T05:50:04.856Z,2.50
2023-08-30T05:51:04.798Z,2.20
2023-08-30T05:52:04.803Z,2.60
2023-08-30T05:53:04.781Z,2.50
2023-08-30T05:54:04.805Z,2.20
2023-08-30T05:55:04.762Z,2.60
2023-08-30T05:56:04.754Z,2.40
2023-08-30T05:57:04.753Z,2.60
2023-08-30T05:58:04.899Z,2.90
2023-08-30T05:59:04.891Z,2.60
2023-08-30T06:00:04.739Z,2.90
2023-08-30T06:01:05.705Z,2.30
2023-08-30T06:02:04.708Z,2.80
2023-08-30T06:03:04.726Z,2.30
2023-08-30T06:04:04.758Z,2.70
2023-08-30T06:05:04.688Z,3.10
2023-08-30T06:06:04.666Z,2.90
2023-08-30T06:07:04.655Z,3.00
2023-08-30T06:08:04.875Z,3.20
2023-08-30T06:09:04.615Z,3.70
2023-08-30T06:10:04.606Z,3.30
2023-08-30T06:11:04.586Z,2.90
2023-08-30T06:12:04.643Z,2.60
2023-08-30T06:13:04.590Z,2.90
2023-08-30T06:14:04.615Z,2.70
2023-08-30T06:15:04.557Z,2.50
2023-08-30T06:16:04.607Z,2.70
2023-08-30T06:17:04.577Z,2.50
2023-08-30T06:18:04.603Z,2.80
2023-08-30T06:19:04.504Z,2.40
2023-08-30T06:20:04.520Z,2.70
2023-08-30T06:21:04.503Z,2.70
2023-08-30T06:22:04.509Z,2.60
2023-08-30T06:23:04.472Z,2.10
2023-08-30T06:24:04.554Z,2.30
2023-08-30T06:25:04.471Z,2.10
2023-08-30T06:26:04.436Z,2.30
2023-08-30T06:27:04.555Z,2.30
2023-08-30T06:28:04.428Z,2.50
2023-08-30T06:29:05.480Z,1.80
2023-08-30T06:30:04.396Z,2.50
2023-08-30T06:31:04.401Z,2.20
2023-08-30T06:32:04.420Z,2.40
2023-08-30T06:33:04.382Z,2.50
2023-08-30T06:34:04.368Z,2.50
2023-08-30T06:35:04.330Z,2.20
2023-08-30T06:36:04.368Z,2.10
2023-08-30T06:37:04.323Z,2.40
2023-08-30T06:38:04.306Z,2.10
2023-08-30T06:39:04.291Z,2.40
2023-08-30T06:40:04.313Z,2.90
2023-08-30T06:41:04.766Z,2.20
2023-08-30T06:42:04.281Z,2.50
2023-08-30T06:43:04.248Z,2.10
2023-08-30T06:44:04.238Z,1.90
2023-08-30T06:45:04.247Z,1.90
2023-08-30T06:46:04.313Z,2.40
2023-08-30T06:47:04.199Z,2.60
2023-08-30T06:48:04.260Z,2.40
2023-08-30T06:49:04.269Z,2.20
2023-08-30T06:50:04.188Z,2.30
2023-08-30T06:51:04.171Z,2.10
2023-08-30T06:52:04.157Z,2.00
2023-08-30T06:53:04.168Z,2.30
2023-08-30T06:54:04.178Z,2.20
2023-08-30T06:55:04.195Z,2.20
2023-08-30T06:56:04.197Z,2.50
2023-08-30T06:57:04.130Z,2.40
2023-08-30T06:58:04.108Z,2.10
2023-08-30T06:59:04.141Z,2.40
2023-08-30T07:00:04.095Z,2.60
2023-08-30T07:01:04.061Z,2.10
2023-08-30T07:02:04.041Z,2.00
2023-08-30T07:03:04.067Z,2.30
2023-08-30T07:04:04.068Z,1.80
2023-08-30T07:05:04.017Z,2.30
2023-08-30T07:06:04.010Z,2.50
2023-08-30T07:07:04.002Z,2.20
2023-08-30T07:08:04.026Z,2.30
2023-08-30T07:09:04.010Z,2.20
2023-08-30T07:10:03.964Z,2.30
2023-08-30T07:11:03.948Z,2.30
2023-08-30T07:12:04.001Z,1.80
2023-08-30T07:13:03.977Z,2.00
2023-08-30T07:14:03.925Z,2.00
2023-08-30T07:15:03.910Z,2.20
2023-08-30T07:16:03.964Z,2.50
2023-08-30T07:17:03.898Z,2.30
2023-08-30T07:18:03.969Z,2.20
2023-08-30T07:19:03.869Z,2.20
2023-08-30T07:20:03.902Z,2.30
2023-08-30T07:21:03.858Z,2.40
2023-08-30T07:22:03.871Z,2.10
2023-08-30T07:23:03.842Z,2.60
2023-08-30T07:24:03.817Z,2.00
2023-08-30T07:25:03.811Z,2.10
2023-08-30T07:26:03.803Z,2.10
2023-08-30T07:27:03.801Z,2.60
2023-08-30T07:28:03.767Z,2.50
2023-08-30T07:29:03.753Z,2.30
2023-08-30T07:30:03.750Z,2.50
2023-08-30T07:31:03.743Z,2.50
2023-08-30T07:32:03.967Z,2.10
2023-08-30T07:33:03.746Z,2.70
2023-08-30T07:34:03.711Z,2.30
2023-08-30T07:35:03.700Z,2.40
2023-08-30T07:36:03.726Z,2.30
2023-08-30T07:37:03.700Z,2.70
2023-08-30T07:38:03.689Z,2.40
2023-08-30T07:39:03.651Z,3.00
2023-08-30T07:40:03.643Z,2.20
2023-08-30T07:41:03.678Z,2.80
2023-08-30T07:42:03.665Z,2.40
2023-08-30T07:43:03.628Z,2.90
2023-08-30T07:44:03.608Z,2.50
2023-08-30T07:45:03.580Z,3.10
2023-08-30T07:46:03.817Z,3.40
2023-08-30T07:47:03.563Z,2.90
2023-08-30T07:48:03.632Z,2.70
2023-08-30T07:49:03.655Z,2.60
2023-08-30T07:50:03.557Z,2.70
2023-08-30T07:51:03.702Z,2.30
2023-08-30T07:52:03.523Z,2.30
2023-08-30T07:53:03.488Z,2.40
2023-08-30T07:54:05.634Z,2.60
2023-08-30T07:55:03.563Z,2.70
2023-08-30T07:56:03.544Z,2.70
2023-08-30T07:57:03.522Z,2.70
2023-08-30T07:58:03.478Z,2.40
2023-08-30T07:59:03.511Z,2.40
2023-08-30T08:00:03.472Z,2.40
2023-08-30T08:01:03.452Z,2.20
2023-08-30T08:02:04.468Z,2.50
2023-08-30T08:03:03.458Z,3.30
2023-08-30T08:04:07.251Z,2.60
2023-08-30T08:05:03.416Z,2.50
2023-08-30T08:06:03.378Z,2.60
2023-08-30T08:07:03.350Z,2.70
2023-08-30T08:08:03.368Z,2.50
2023-08-30T08:09:03.399Z,2.70
2023-08-30T08:10:03.326Z,2.60
2023-08-30T08:11:03.312Z,2.40
2023-08-30T08:12:03.310Z,2.50
2023-08-30T08:13:03.381Z,2.20
2023-08-30T08:14:03.399Z,2.30
2023-08-30T08:15:03.267Z,2.30
2023-08-30T08:16:03.261Z,2.80
2023-08-30T08:17:03.241Z,2.10
2023-08-30T08:18:03.345Z,2.40
2023-08-30T08:19:03.274Z,2.70
2023-08-30T08:20:03.213Z,2.70
2023-08-30T08:21:03.207Z,2.60
2023-08-30T08:22:03.196Z,2.30
2023-08-30T08:23:03.217Z,2.40
2023-08-30T08:24:03.170Z,2.60
2023-08-30T08:25:03.155Z,2.80
2023-08-30T08:26:03.191Z,2.30
2023-08-30T08:27:03.163Z,2.20
2023-08-30T08:28:03.223Z,2.60
2023-08-30T08:29:03.111Z,2.70
2023-08-30T08:30:03.093Z,2.50
2023-08-30T08:31:03.123Z,2.10
2023-08-30T08:32:03.102Z,2.50
2023-08-30T08:33:03.113Z,2.50
2023-08-30T08:34:03.054Z,2.80
2023-08-30T08:35:03.051Z,2.60
2023-08-30T08:36:03.030Z,2.90
2023-08-30T08:37:03.046Z,2.40
2023-08-30T08:38:03.007Z,2.70
2023-08-30T08:39:03.028Z,2.70
2023-08-30T08:40:03.010Z,2.50
2023-08-30T08:41:03.006Z,2.30
2023-08-30T08:42:02.983Z,2.80
2023-08-30T08:43:02.969Z,2.70
2023-08-30T08:44:02.953Z,2.70
2023-08-30T08:45:02.951Z,2.30
2023-08-30T08:46:02.941Z,2.70
2023-08-30T08:47:02.927Z,2.50
2023-08-30T08:48:02.949Z,2.60
2023-08-30T08:49:02.913Z,2.40
2023-08-30T08:50:02.909Z,2.30
2023-08-30T08:51:02.928Z,2.70
2023-08-30T08:52:09.440Z,2.50
2023-08-30T08:53:02.860Z,3.00
2023-08-30T08:54:02.842Z,2.70
2023-08-30T08:55:02.851Z,2.20
2023-08-30T08:56:02.891Z,3.30
2023-08-30T08:57:02.828Z,2.20
2023-08-30T08:58:02.826Z,1.90
2023-08-30T08:59:02.804Z,2.90
2023-08-30T09:00:02.801Z,2.90
2023-08-30T09:01:03.277Z,2.80
2023-08-30T09:02:02.851Z,2.70
2023-08-30T09:03:02.848Z,2.70
2023-08-30T09:04:02.791Z,2.70
2023-08-30T09:05:02.750Z,2.60
2023-08-30T09:06:02.749Z,2.60
2023-08-30T09:07:02.711Z,2.10
2023-08-30T09:08:02.725Z,2.40
2023-08-30T09:09:02.706Z,2.60
2023-08-30T09:10:02.681Z,2.70
2023-08-30T09:11:02.670Z,2.60
2023-08-30T09:12:02.707Z,2.70
2023-08-30T09:13:02.645Z,2.60
2023-08-30T09:14:02.646Z,2.60
2023-08-30T09:15:02.646Z,2.40
2023-08-30T09:16:02.626Z,2.30
2023-08-30T09:17:02.672Z,2.80
2023-08-30T09:18:02.639Z,2.70
2023-08-30T09:20:02.564Z,2.60
2023-08-30T09:21:02.562Z,2.50
2023-08-30T09:22:02.589Z,2.70
2023-08-30T09:23:02.589Z,3.20
2023-08-30T09:24:04.682Z,2.10
2023-08-30T09:25:02.526Z,2.60
2023-08-30T09:26:02.515Z,2.80
2023-08-30T09:27:02.503Z,3.30
2023-08-30T09:28:02.507Z,3.00
2023-08-30T09:29:02.477Z,2.70
2023-08-30T09:30:02.461Z,2.80
2023-08-30T09:31:10.288Z,2.50
2023-08-30T09:32:02.431Z,2.90
2023-08-30T09:33:02.547Z,2.70
2023-08-30T09:34:02.415Z,3.20
2023-08-30T09:35:02.408Z,2.50
2023-08-30T09:36:02.446Z,3.00
2023-08-30T09:37:03.539Z,2.80
2023-08-30T09:38:02.396Z,3.20
2023-08-30T09:39:02.372Z,3.00
2023-08-30T09:40:02.352Z,2.70
2023-08-30T09:41:02.342Z,3.40
2023-08-30T09:42:02.362Z,3.00
2023-08-30T09:43:12.686Z,3.00
2023-08-30T09:44:13.546Z,3.40
2023-08-30T09:45:02.344Z,3.10
2023-08-30T09:46:02.347Z,3.30
2023-08-30T09:47:02.393Z,3.80
2023-08-30T09:48:02.308Z,2.70
2023-08-30T09:49:02.304Z,3.10
2023-08-30T09:50:02.253Z,3.30
2023-08-30T09:51:02.294Z,3.50
2023-08-30T09:52:02.312Z,3.90
2023-08-30T09:53:02.229Z,3.80
2023-08-30T09:54:06.136Z,3.30
2023-08-30T09:55:02.255Z,3.30
2023-08-30T09:56:02.194Z,3.60
2023-08-30T09:57:02.184Z,4.40
2023-08-30T09:58:02.301Z,3.30
2023-08-30T09:59:02.185Z,4.50
2023-08-30T10:00:02.136Z,3.80
2023-08-30T10:01:02.233Z,3.90
2023-08-30T10:02:02.407Z,4.10
2023-08-30T10:03:24.965Z,3.60
2023-08-30T10:04:02.146Z,3.80
2023-08-30T10:05:02.620Z,3.90
2023-08-30T10:06:02.156Z,4.10
2023-08-30T10:07:02.061Z,3.90
2023-08-30T10:08:02.071Z,4.00
2023-08-30T10:09:02.061Z,3.50
2023-08-30T10:11:02.035Z,3.50
2023-08-30T10:12:02.041Z,3.60
2023-08-30T10:13:09.987Z,3.70
2023-08-30T10:14:01.985Z,3.50
2023-08-30T10:15:01.992Z,3.40
2023-08-30T10:16:02.012Z,4.20
2023-08-30T10:17:02.029Z,3.30
2023-08-30T10:18:01.962Z,3.10
2023-08-30T10:19:05.774Z,3.60
2023-08-30T10:20:02.112Z,4.30
2023-08-30T10:21:01.936Z,3.40
2023-08-30T10:22:01.896Z,3.30
2023-08-30T10:23:01.952Z,3.80
2023-08-30T10:24:01.981Z,3.50
2023-08-30T10:25:10.613Z,3.50
2023-08-30T10:26:01.950Z,3.00
2023-08-30T10:27:01.873Z,3.30
2023-08-30T10:28:01.832Z,3.40
2023-08-30T10:29:01.900Z,3.30
2023-08-30T10:30:01.969Z,3.10
2023-08-30T10:31:01.822Z,3.40
2023-08-30T10:32:01.794Z,3.60
2023-08-30T10:33:01.883Z,3.70
2023-08-30T10:34:01.783Z,3.40
2023-08-30T10:35:01.775Z,3.70
2023-08-30T10:36:01.813Z,3.30
2023-08-30T10:37:01.764Z,3.80
2023-08-30T10:38:01.829Z,3.40
2023-08-30T10:39:01.741Z,3.40
2023-08-30T10:40:01.705Z,4.20
2023-08-30T10:41:01.703Z,3.30
2023-08-30T10:42:01.799Z,3.20
2023-08-30T10:43:01.754Z,3.90
2023-08-30T10:44:02.611Z,3.80
2023-08-30T10:45:13.136Z,3.20
2023-08-30T10:46:01.747Z,3.10
2023-08-30T10:47:01.823Z,3.50
2023-08-30T10:48:01.790Z,2.90
2023-08-30T10:49:01.616Z,3.60
2023-08-30T10:50:01.643Z,2.90
2023-08-30T10:51:01.602Z,3.20
2023-08-30T10:52:01.613Z,2.80
2023-08-30T10:53:01.675Z,3.30
2023-08-30T10:54:01.605Z,3.50
2023-08-30T10:55:01.739Z,2.80
2023-08-30T10:56:01.581Z,3.60
2023-08-30T10:57:01.559Z,2.70
2023-08-30T10:58:01.551Z,3.00
2023-08-30T10:59:01.517Z,2.80
2023-08-30T11:00:01.510Z,3.30
2023-08-30T11:01:01.560Z,2.80
2023-08-30T11:02:01.474Z,2.70
2023-08-30T11:03:01.626Z,3.00
2023-08-30T11:04:13.347Z,3.00
2023-08-30T11:05:01.532Z,3.50
2023-08-30T11:06:01.450Z,3.40
2023-08-30T11:07:01.429Z,3.30
2023-08-30T11:08:01.433Z,3.00
2023-08-30T11:09:01.414Z,2.80
2023-08-30T11:10:01.441Z,2.90
2023-08-30T11:11:01.416Z,2.90
2023-08-30T11:12:01.379Z,3.00
2023-08-30T11:13:01.421Z,3.20
2023-08-30T11:14:01.344Z,3.10
2023-08-30T11:15:02.098Z,3.00
2023-08-30T11:16:01.368Z,2.40
2023-08-30T11:17:01.337Z,2.60
2023-08-30T11:18:01.340Z,2.30
2023-08-30T11:19:01.301Z,2.90
2023-08-30T11:20:01.385Z,2.70
2023-08-30T11:21:01.281Z,3.00
2023-08-30T11:22:01.318Z,2.60
2023-08-30T11:23:01.274Z,2.70
2023-08-30T11:24:01.265Z,3.10
2023-08-30T11:25:01.257Z,2.50
2023-08-30T11:26:01.224Z,2.20
2023-08-30T11:27:01.220Z,1.70
2023-08-30T11:28:01.255Z,1.70
2023-08-30T11:29:01.208Z,2.00
2023-08-30T11:30:01.175Z,1.70
2023-08-30T11:31:01.176Z,2.10
2023-08-30T11:32:01.188Z,2.20
2023-08-30T11:33:01.205Z,2.10
2023-08-30T11:34:01.167Z,2.10
2023-08-30T11:35:01.183Z,2.00
2023-08-30T11:36:01.111Z,1.60
2023-08-30T11:37:01.134Z,1.60
2023-08-30T11:38:01.121Z,1.90
2023-08-30T11:39:01.124Z,2.00
2023-08-30T11:40:01.124Z,1.90
2023-08-30T11:41:01.290Z,2.20
2023-08-30T11:42:09.411Z,2.00
2023-08-30T11:43:01.073Z,1.80
2023-08-30T11:44:01.065Z,2.00
2023-08-30T11:45:01.078Z,2.00
2023-08-30T11:46:01.077Z,2.10
2023-08-30T11:47:01.024Z,1.90
2023-08-30T11:48:01.110Z,2.00
2023-08-30T11:49:01.026Z,1.80
2023-08-30T11:50:01.031Z,1.90
2023-08-30T11:51:00.957Z,1.90
2023-08-30T11:52:00.960Z,1.70
2023-08-30T11:53:00.995Z,1.70
2023-08-30T11:54:00.915Z,1.80
2023-08-30T11:55:00.925Z,1.80
2023-08-30T11:56:00.928Z,1.50
2023-08-30T11:57:00.965Z,1.60
2023-08-30T11:58:00.901Z,1.50
2023-08-30T11:59:00.877Z,1.90
2023-08-30T12:00:01.026Z,1.80
2023-08-30T12:01:00.909Z,1.80
2023-08-30T12:02:00.890Z,1.60
2023-08-30T12:03:00.883Z,1.80
2023-08-30T12:04:00.823Z,2.00
2023-08-30T12:05:00.834Z,1.80
2023-08-30T12:06:00.847Z,1.40
2023-08-30T12:07:00.865Z,1.60
2023-08-30T12:08:00.772Z,1.80
2023-08-30T12:09:00.770Z,1.50
2023-08-30T12:10:00.770Z,1.50
2023-08-30T12:11:00.782Z,1.60
2023-08-30T12:12:00.733Z,1.40
2023-08-30T12:13:00.771Z,1.30
2023-08-30T12:14:00.711Z,1.30
2023-08-30T12:15:00.740Z,1.20
2023-08-30T12:16:00.738Z,1.60
2023-08-30T12:17:00.735Z,1.30
2023-08-30T12:18:00.681Z,1.30
2023-08-30T12:19:00.666Z,1.50
2023-08-30T12:20:00.743Z,1.10
2023-08-30T12:21:00.718Z,1.70
2023-08-30T12:22:00.625Z,1.40
2023-08-30T12:23:00.646Z,1.60
2023-08-30T12:24:00.605Z,1.80
2023-08-30T12:25:01.252Z,1.90
2023-08-30T12:26:00.586Z,1.40
2023-08-30T12:27:00.580Z,1.40
2023-08-30T12:28:00.576Z,1.60
2023-08-30T12:29:00.630Z,1.30
2023-08-30T12:30:00.554Z,1.70
2023-08-30T12:31:01.844Z,1.50
2023-08-30T12:32:00.517Z,1.80
2023-08-30T12:33:00.553Z,1.10
2023-08-30T12:34:00.525Z,1.60
2023-08-30T12:35:00.494Z,1.40
2023-08-30T12:36:00.496Z,1.20
2023-08-30T12:37:03.105Z,1.20
2023-08-30T12:38:00.462Z,1.20
2023-08-30T12:39:00.466Z,1.00
2023-08-30T12:40:00.466Z,1.30
2023-08-30T12:41:00.433Z,1.30
2023-08-30T12:42:00.459Z,1.10
2023-08-30T12:43:00.435Z,1.30
2023-08-30T12:44:00.431Z,0.90
2023-08-30T12:45:00.379Z,1.20
2023-08-30T12:46:00.398Z,1.30
2023-08-30T12:47:00.365Z,1.20
2023-08-30T12:48:00.443Z,1.50
2023-08-30T12:49:00.364Z,1.40
2023-08-30T12:50:00.370Z,1.50
2023-08-30T12:51:00.318Z,1.30
2023-08-30T12:52:00.326Z,1.20
2023-08-30T12:53:00.315Z,1.20
2023-08-30T12:54:00.318Z,1.00
2023-08-30T12:55:00.358Z,1.00
2023-08-30T12:56:00.266Z,1.30
2023-08-30T12:57:00.314Z,1.20
2023-08-30T12:58:00.272Z,1.40
2023-08-30T12:59:00.245Z,1.30
2023-08-30T13:00:00.264Z,1.20
2023-08-30T13:01:00.277Z,1.30
2023-08-30T13:02:00.695Z,1.30
2023-08-30T13:03:00.353Z,1.30
2023-08-30T13:04:00.288Z,1.20
2023-08-30T13:05:00.179Z,1.40
2023-08-30T13:06:00.182Z,1.40
2023-08-30T13:07:00.163Z,1.00
2023-08-30T13:08:00.189Z,1.20
2023-08-30T13:09:00.125Z,1.10
2023-08-30T13:10:00.204Z,1.20
2023-08-30T13:11:00.145Z,1.40
2023-08-30T13:12:00.231Z,1.30
2023-08-30T13:13:00.080Z,1.20
2023-08-30T13:14:00.080Z,1.40
2023-08-30T13:15:00.110Z,1.40
2023-08-30T13:16:00.089Z,1.40
2023-08-30T13:17:00.053Z,1.20
2023-08-30T13:18:00.109Z,1.40
2023-08-30T13:19:00.096Z,1.20
2023-08-30T13:20:00.094Z,1.20